createdAt,value
2018-10-09T00:00:20.630Z,79.69
2018-10-09T00:00:58.439Z,79.24
2018-10-09T00:01:36.483Z,80.36
2018-10-09T00:02:14.418Z,80.01
2018-10-09T00:02:52.320Z,80.78
2018-10-09T00:03:30.125Z,80.86
2018-10-09T00:04:08.077Z,80.21
2018-10-09T00:04:45.950Z,79.98
2018-10-09T00:05:23.787Z,79.94
2018-10-09T00:06:01.705Z,80.65
2018-10-09T00:06:39.632Z,80.66
2018-10-09T00:07:17.626Z,81.33
2018-10-09T00:07:55.573Z,81.57
2018-10-09T00:08:33.434Z,80.33
2018-10-09T00:09:12.772Z,81.77
2018-10-09T00:09:51.899Z,81.05
2018-10-09T00:10:29.784Z,81.37
2018-10-09T00:11:07.691Z,81.34
2018-10-09T00:11:45.636Z,80.84
2018-10-09T00:12:23.652Z,81.28
2018-10-09T00:13:01.525Z,81.59
2018-10-09T00:13:39.373Z,81.04
2018-10-09T00:14:18.442Z,81.72
2018-10-09T00:14:56.279Z,81.97
2018-10-09T00:15:34.980Z,82.48
2018-10-09T00:16:12.888Z,82.71
2018-10-09T00:16:50.775Z,82.02
2018-10-09T00:17:28.577Z,82.46
2018-10-09T00:18:06.631Z,82.53
2018-10-09T00:18:44.508Z,82.80
2018-10-09T00:19:22.349Z,81.77
2018-10-09T00:20:00.316Z,83.51
2018-10-09T00:20:38.219Z,82.23
2018-10-09T00:21:16.242Z,82.84
2018-10-09T00:21:54.124Z,81.85
2018-10-09T00:22:31.933Z,82.16
2018-10-09T00:23:10.453Z,82.07
2018-10-09T00:23:48.361Z,81.72
2018-10-09T00:24:26.196Z,82.36
2018-10-09T00:25:04.048Z,80.99
2018-10-09T00:25:42.444Z,81.69
2018-10-09T00:26:20.327Z,81.36
2018-10-09T00:26:58.932Z,80.61
2018-10-09T00:27:36.793Z,80.76
2018-10-09T00:28:14.645Z,81.56
2018-10-09T00:28:52.659Z,81.24
2018-10-09T00:29:30.466Z,80.30
2018-10-09T00:30:08.389Z,80.76
2018-10-09T00:30:46.480Z,81.06
2018-10-09T00:31:24.454Z,80.34
2018-10-09T00:32:02.464Z,81.16
2018-10-09T00:32:40.409Z,80.09
2018-10-09T00:33:18.292Z,80.42
2018-10-09T00:33:56.269Z,79.90
2018-10-09T00:34:34.319Z,80.11
2018-10-09T00:35:12.133Z,79.62
2018-10-09T00:35:49.959Z,80.04
2018-10-09T00:36:27.916Z,79.84
2018-10-09T00:37:05.897Z,80.53
2018-10-09T00:37:43.880Z,80.36
2018-10-09T00:38:21.818Z,79.91
2018-10-09T00:38:59.742Z,79.72
2018-10-09T00:39:37.855Z,80.33
2018-10-09T00:43:17.029Z,77.93
2018-10-09T00:43:54.922Z,78.17
2018-10-09T00:44:32.865Z,78.19
2018-10-09T00:45:10.983Z,77.59
2018-10-09T00:45:51.091Z,78.37
2018-10-09T00:46:28.997Z,76.97
2018-10-09T00:47:06.878Z,77.59
2018-10-09T00:47:44.730Z,77.76
2018-10-09T00:48:22.573Z,76.95
2018-10-09T00:49:00.536Z,76.66
2018-10-09T00:49:38.399Z,76.34
2018-10-09T00:50:16.749Z,75.92
2018-10-09T00:50:54.847Z,76.40
2018-10-09T00:51:32.689Z,76.16
2018-10-09T00:52:11.053Z,76.32
2018-10-09T00:52:48.942Z,75.19
2018-10-09T00:53:27.089Z,76.13
2018-10-09T00:54:05.022Z,75.59
2018-10-09T00:54:42.957Z,74.99
2018-10-09T00:55:21.145Z,75.10
2018-10-09T00:55:59.213Z,75.11
2018-10-09T00:56:37.186Z,74.34
2018-10-09T00:57:15.169Z,73.56
2018-10-09T00:57:53.093Z,74.46
2018-10-09T00:58:30.909Z,73.42
2018-10-09T00:59:08.962Z,73.39
2018-10-09T00:59:46.844Z,73.10
2018-10-09T01:00:24.671Z,72.77
2018-10-09T01:01:02.680Z,73.18
2018-10-09T01:01:40.586Z,72.22
2018-10-09T01:02:18.594Z,72.72
2018-10-09T01:02:56.521Z,72.62
2018-10-09T01:03:34.520Z,72.94
2018-10-09T01:04:12.490Z,72.16
2018-10-09T01:04:50.422Z,71.71
2018-10-09T01:05:29.529Z,71.79
2018-10-09T01:06:07.421Z,71.63
2018-10-09T01:06:45.308Z,71.09
2018-10-09T01:07:23.515Z,71.69
2018-10-09T01:08:01.461Z,71.80
2018-10-09T01:08:39.623Z,70.73
2018-10-09T01:09:17.482Z,71.42
2018-10-09T01:09:55.748Z,70.89
2018-10-09T01:10:33.643Z,70.78
2018-10-09T01:11:11.759Z,70.70
2018-10-09T01:11:50.519Z,70.90
2018-10-09T01:12:28.651Z,70.37
2018-10-09T01:13:06.510Z,70.61
2018-10-09T01:13:44.378Z,70.56
2018-10-09T01:14:22.301Z,70.10
2018-10-09T01:15:00.999Z,70.44
2018-10-09T01:15:38.877Z,70.43
2018-10-09T01:16:17.457Z,70.24
2018-10-09T01:16:55.347Z,70.11
2018-10-09T01:17:33.361Z,69.96
2018-10-09T01:18:11.204Z,69.87
2018-10-09T01:18:49.105Z,69.79
2018-10-09T01:19:27.073Z,69.92
2018-10-09T01:20:04.919Z,69.86
2018-10-09T01:20:42.822Z,69.36
2018-10-09T01:21:20.773Z,70.52
2018-10-09T01:21:58.865Z,70.91
2018-10-09T01:22:36.808Z,71.49
2018-10-09T01:23:14.660Z,71.35
2018-10-09T01:23:52.494Z,71.55
2018-10-09T01:24:30.421Z,71.37
2018-10-09T01:25:08.350Z,71.15
2018-10-09T01:25:46.217Z,70.96
2018-10-09T01:26:24.045Z,70.66
2018-10-09T01:27:01.921Z,70.49
2018-10-09T01:27:39.912Z,70.20
2018-10-09T01:28:17.715Z,70.01
2018-10-09T01:28:55.603Z,69.59
2018-10-09T01:29:33.449Z,69.80
2018-10-09T01:30:12.208Z,69.51
2018-10-09T01:30:50.062Z,69.46
2018-10-09T01:31:27.988Z,69.06
2018-10-09T01:32:06.769Z,68.89
2018-10-09T01:32:44.637Z,68.84
2018-10-09T01:33:22.539Z,69.17
2018-10-09T01:34:00.453Z,69.33
2018-10-09T01:34:38.412Z,69.16
2018-10-09T01:35:16.311Z,69.87
2018-10-09T01:35:54.676Z,70.18
2018-10-09T01:36:32.511Z,70.42
2018-10-09T01:37:10.485Z,70.76
2018-10-09T01:37:48.420Z,70.62
2018-10-09T01:38:26.468Z,70.48
2018-10-09T01:39:04.391Z,70.85
2018-10-09T01:39:42.263Z,70.31
2018-10-09T01:40:20.092Z,70.64
2018-10-09T01:40:57.911Z,70.09
2018-10-09T01:41:35.792Z,69.43
2018-10-09T01:42:13.672Z,69.08
2018-10-09T01:42:53.114Z,68.87
2018-10-09T01:43:31.801Z,68.91
2018-10-09T01:44:09.802Z,68.83
2018-10-09T01:44:49.452Z,69.02
2018-10-09T01:45:28.048Z,68.45
2018-10-09T01:46:05.916Z,67.86
2018-10-09T01:46:44.023Z,67.31
2018-10-09T01:47:21.897Z,67.32
2018-10-09T01:47:59.925Z,67.42
2018-10-09T01:48:38.567Z,68.10
2018-10-09T01:49:16.428Z,66.76
2018-10-09T01:49:54.408Z,66.74
2018-10-09T01:50:32.400Z,66.50
2018-10-09T01:51:10.391Z,66.23
2018-10-09T01:51:48.233Z,65.88
2018-10-09T01:52:28.098Z,65.47
2018-10-09T01:53:06.094Z,66.22
2018-10-09T01:53:43.922Z,65.67
2018-10-09T01:54:22.048Z,66.51
2018-10-09T01:54:59.854Z,66.36
2018-10-09T01:55:37.899Z,66.39
2018-10-09T01:56:16.999Z,66.28
2018-10-09T01:56:55.052Z,65.86
2018-10-09T01:57:32.973Z,65.55
2018-10-09T01:58:10.881Z,65.30
2018-10-09T01:58:48.716Z,65.25
2018-10-09T01:59:26.561Z,65.38
2018-10-09T02:00:04.448Z,64.93
2018-10-09T02:00:42.237Z,65.54
2018-10-09T02:01:20.222Z,64.79
2018-10-09T02:01:58.057Z,65.33
2018-10-09T02:02:35.958Z,65.21
2018-10-09T02:03:13.855Z,65.05
2018-10-09T02:03:51.752Z,65.09
2018-10-09T02:04:29.684Z,64.46
2018-10-09T02:05:07.859Z,64.52
2018-10-09T02:05:45.783Z,64.85
2018-10-09T02:06:23.745Z,64.41
2018-10-09T02:07:01.585Z,63.55
2018-10-09T02:07:39.558Z,63.76
2018-10-09T02:08:17.348Z,63.26
2018-10-09T02:08:55.254Z,63.50
2018-10-09T02:09:34.009Z,63.24
2018-10-09T02:10:11.920Z,63.05
2018-10-09T02:10:49.874Z,63.58
2018-10-09T02:11:27.738Z,62.75
2018-10-09T02:12:05.706Z,62.73
2018-10-09T02:12:43.530Z,63.12
2018-10-09T02:13:21.330Z,62.04
2018-10-09T02:13:59.264Z,63.20
2018-10-09T02:14:37.075Z,63.18
2018-10-09T02:15:16.033Z,62.44
2018-10-09T02:15:53.929Z,63.13
2018-10-09T02:16:31.752Z,63.03
2018-10-09T02:17:09.765Z,62.20
2018-10-09T02:17:47.653Z,62.85
2018-10-09T02:18:25.483Z,61.99
2018-10-09T02:19:03.485Z,61.67
2018-10-09T02:19:42.461Z,62.68
2018-10-09T02:20:20.421Z,62.19
2018-10-09T02:20:58.417Z,62.08
2018-10-09T02:21:36.446Z,62.01
2018-10-09T02:22:14.386Z,61.57
2018-10-09T02:22:52.359Z,61.14
2018-10-09T02:23:30.286Z,61.44
2018-10-09T02:24:08.251Z,61.73
2018-10-09T02:24:46.127Z,61.95
2018-10-09T02:25:24.012Z,61.81
2018-10-09T02:26:01.894Z,60.94
2018-10-09T02:26:39.791Z,60.77
2018-10-09T02:27:17.835Z,61.50
2018-10-09T02:27:55.732Z,61.63
2018-10-09T02:28:33.651Z,61.64
2018-10-09T02:29:11.772Z,61.69
2018-10-09T02:29:49.774Z,61.17
2018-10-09T02:30:27.759Z,61.37
2018-10-09T02:31:06.372Z,61.70
2018-10-09T02:31:45.241Z,61.72
2018-10-09T02:32:23.033Z,60.44
2018-10-09T02:33:01.164Z,61.14
2018-10-09T02:33:39.063Z,61.15
2018-10-09T02:34:17.023Z,61.87
2018-10-09T02:34:54.871Z,60.67
2018-10-09T02:35:32.937Z,60.42
2018-10-09T02:36:10.945Z,60.35
2018-10-09T02:36:48.895Z,59.91
2018-10-09T02:37:26.823Z,59.73
2018-10-09T02:38:04.743Z,60.00
2018-10-09T02:38:42.691Z,59.91
2018-10-09T02:39:20.577Z,59.59
2018-10-09T02:39:58.354Z,60.63
2018-10-09T02:40:36.609Z,60.82
2018-10-09T02:41:14.515Z,60.65
2018-10-09T02:41:52.412Z,60.65
2018-10-09T02:42:31.520Z,60.46
2018-10-09T02:43:09.437Z,61.83
2018-10-09T02:43:47.458Z,61.47
2018-10-09T02:44:25.370Z,62.21
2018-10-09T02:45:03.340Z,61.92
2018-10-09T02:45:46.854Z,61.93
2018-10-09T02:46:24.771Z,62.28
2018-10-09T02:47:03.866Z,61.36
2018-10-09T02:47:41.649Z,61.98
2018-10-09T02:48:19.517Z,60.75
2018-10-09T02:48:58.557Z,60.29
2018-10-09T02:49:36.314Z,61.30
2018-10-09T02:50:14.198Z,60.16
2018-10-09T02:50:52.135Z,60.81
2018-10-09T02:51:29.999Z,60.18
2018-10-09T02:52:07.889Z,61.04
2018-10-09T02:52:46.713Z,60.98
2018-10-09T02:53:24.661Z,60.52
2018-10-09T02:54:02.494Z,60.67
2018-10-09T02:54:41.276Z,59.85
2018-10-09T02:55:19.198Z,59.66
2018-10-09T02:55:57.006Z,59.09
2018-10-09T02:56:34.869Z,59.68
2018-10-09T02:57:12.733Z,59.28
2018-10-09T02:57:50.722Z,58.37
2018-10-09T02:58:28.587Z,58.09
2018-10-09T02:59:06.559Z,59.18
2018-10-09T02:59:44.483Z,59.36
2018-10-09T03:00:23.632Z,58.24
2018-10-09T03:01:01.577Z,58.66
2018-10-09T03:01:39.539Z,59.27
2018-10-09T03:02:17.461Z,59.20
2018-10-09T03:02:55.312Z,58.58
2018-10-09T03:03:33.176Z,58.45
2018-10-09T03:04:11.191Z,59.56
2018-10-09T03:04:49.402Z,58.55
2018-10-09T03:05:27.271Z,57.91
2018-10-09T03:06:05.736Z,56.86
2018-10-09T03:06:43.620Z,57.02
2018-10-09T03:07:25.600Z,57.42
2018-10-09T03:08:03.427Z,57.39
2018-10-09T03:08:41.333Z,56.85
2018-10-09T03:09:19.204Z,58.20
2018-10-09T03:09:57.133Z,57.38
2018-10-09T03:10:35.075Z,56.81
2018-10-09T03:11:13.020Z,56.77
2018-10-09T03:11:50.924Z,55.78
2018-10-09T03:12:28.823Z,55.82
2018-10-09T03:13:06.730Z,56.18
2018-10-09T03:13:44.507Z,56.73
2018-10-09T03:14:22.516Z,56.30
2018-10-09T03:15:00.368Z,54.77
2018-10-09T03:15:38.231Z,55.30
2018-10-09T03:16:17.029Z,55.03
2018-10-09T03:16:55.131Z,54.86
2018-10-09T03:17:33.064Z,54.35
2018-10-09T03:18:10.983Z,54.94
2018-10-09T03:18:48.789Z,54.55
2018-10-09T03:19:26.971Z,55.54
2018-10-09T03:20:04.893Z,53.84
2018-10-09T03:20:42.813Z,54.80
2018-10-09T03:21:20.692Z,53.41
2018-10-09T03:21:58.565Z,54.23
2018-10-09T03:22:36.439Z,54.13
2018-10-09T03:23:14.259Z,53.62
2018-10-09T03:23:52.312Z,53.35
2018-10-09T03:24:30.222Z,53.31
2018-10-09T03:25:08.084Z,53.08
2018-10-09T03:25:46.926Z,53.17
2018-10-09T03:26:24.783Z,53.95
2018-10-09T03:27:02.587Z,53.94
2018-10-09T03:27:41.613Z,52.91
2018-10-09T03:28:19.541Z,53.06
2018-10-09T03:28:57.528Z,53.38
2018-10-09T03:29:36.318Z,53.10
2018-10-09T03:30:14.849Z,52.55
2018-10-09T03:30:52.790Z,52.66
2018-10-09T03:31:30.746Z,52.23
2018-10-09T03:32:08.610Z,52.33
2018-10-09T03:32:46.454Z,53.07
2018-10-09T03:33:25.178Z,52.58
2018-10-09T03:34:03.958Z,52.38
2018-10-09T03:34:44.763Z,52.81
2018-10-09T03:35:22.534Z,53.11
2018-10-09T03:36:00.350Z,53.48
2018-10-09T03:36:38.167Z,53.80
2018-10-09T03:37:16.000Z,55.00
2018-10-09T03:37:55.316Z,55.37
2018-10-09T03:38:33.191Z,55.36
2018-10-09T03:39:12.139Z,54.74
2018-10-09T03:39:50.089Z,54.49
2018-10-09T03:40:28.154Z,54.60
2018-10-09T03:41:06.046Z,55.34
2018-10-09T03:41:43.925Z,55.72
2018-10-09T03:42:21.891Z,56.03
2018-10-09T03:42:59.812Z,56.20
2018-10-09T03:43:37.713Z,55.67
2018-10-09T03:44:16.748Z,55.92
2018-10-09T03:44:54.611Z,54.63
2018-10-09T03:45:33.348Z,55.18
2018-10-09T03:46:11.307Z,54.02
2018-10-09T03:46:49.193Z,52.99
2018-10-09T03:47:27.092Z,53.74
2018-10-09T03:48:05.019Z,53.55
2018-10-09T03:48:42.906Z,54.18
2018-10-09T03:49:20.771Z,53.60
2018-10-09T03:49:58.626Z,53.91
2018-10-09T03:50:37.136Z,52.93
2018-10-09T03:51:15.231Z,53.40
2018-10-09T03:51:53.031Z,52.13
2018-10-09T03:52:30.820Z,51.83
2018-10-09T03:53:08.693Z,52.19
2018-10-09T03:53:46.488Z,51.61
2018-10-09T03:54:24.363Z,53.32
2018-10-09T03:55:02.529Z,53.22
2018-10-09T03:55:41.267Z,53.44
2018-10-09T03:56:19.065Z,52.02
2018-10-09T03:56:56.936Z,51.86
2018-10-09T03:57:34.726Z,51.68
2018-10-09T03:58:12.602Z,51.10
2018-10-09T03:58:53.363Z,50.77
2018-10-09T03:59:31.280Z,51.87
2018-10-09T04:00:09.136Z,51.90
2018-10-09T04:00:47.145Z,50.69
2018-10-09T04:01:24.983Z,51.51
2018-10-09T04:02:02.859Z,51.16
2018-10-09T04:02:40.631Z,51.66
2018-10-09T04:03:18.423Z,50.56
2018-10-09T04:03:56.367Z,51.04
2018-10-09T04:04:35.271Z,50.83
2018-10-09T04:05:13.060Z,51.43
2018-10-09T04:05:50.923Z,51.74
2018-10-09T04:06:28.923Z,51.83
2018-10-09T04:07:06.827Z,51.26
2018-10-09T04:07:44.628Z,51.27
2018-10-09T04:08:22.514Z,52.22
2018-10-09T04:09:00.452Z,51.07
2018-10-09T04:09:38.533Z,50.43
2018-10-09T04:10:16.595Z,50.18
2018-10-09T04:10:54.527Z,50.78
2018-10-09T04:11:32.360Z,50.06
2018-10-09T04:12:10.252Z,49.71
2018-10-09T04:12:48.110Z,49.77
2018-10-09T04:13:26.056Z,50.08
2018-10-09T04:14:03.959Z,50.88
2018-10-09T04:14:41.840Z,51.79
2018-10-09T04:15:19.788Z,51.88
2018-10-09T04:15:57.704Z,51.53
2018-10-09T04:16:35.573Z,51.50
2018-10-09T04:17:13.359Z,50.69
2018-10-09T04:17:51.308Z,50.73
2018-10-09T04:18:29.152Z,51.19
2018-10-09T04:19:07.027Z,50.91
2018-10-09T04:19:44.936Z,50.83
2018-10-09T04:20:22.777Z,51.22
2018-10-09T04:21:00.784Z,51.44
2018-10-09T04:21:38.986Z,51.19
2018-10-09T04:22:20.911Z,51.33
2018-10-09T04:22:58.739Z,50.87
2018-10-09T04:23:36.616Z,50.50
2018-10-09T04:24:14.543Z,51.35
2018-10-09T04:24:52.780Z,51.61
2018-10-09T04:25:30.657Z,50.80
2018-10-09T04:26:08.562Z,50.89
2018-10-09T04:26:46.506Z,51.35
2018-10-09T04:27:24.700Z,51.42
2018-10-09T04:28:02.545Z,51.29
2018-10-09T04:28:40.957Z,50.43
2018-10-09T04:29:18.898Z,50.21
2018-10-09T04:29:56.733Z,50.96
2018-10-09T04:30:34.665Z,50.97
2018-10-09T04:31:12.744Z,50.47
2018-10-09T04:31:56.742Z,50.91
2018-10-09T04:32:34.751Z,50.44
2018-10-09T04:33:12.596Z,50.47
2018-10-09T04:33:50.625Z,51.72
2018-10-09T04:34:28.501Z,51.54
2018-10-09T04:35:06.340Z,51.32
2018-10-09T04:35:44.257Z,51.94
2018-10-09T04:36:22.186Z,51.55
2018-10-09T04:37:01.135Z,51.68
2018-10-09T04:37:39.126Z,52.16
2018-10-09T04:38:17.077Z,52.09
2018-10-09T04:38:55.060Z,51.26
2018-10-09T04:39:33.078Z,51.48
2018-10-09T04:40:11.086Z,52.42
2018-10-09T04:40:48.928Z,52.83
2018-10-09T04:41:26.725Z,52.75
2018-10-09T04:42:04.521Z,52.73
2018-10-09T04:42:42.354Z,52.63
2018-10-09T04:43:20.286Z,52.39
2018-10-09T04:43:58.098Z,53.02
2018-10-09T04:44:36.423Z,52.67
2018-10-09T04:45:14.247Z,52.25
2018-10-09T04:45:52.547Z,52.16
2018-10-09T04:46:30.451Z,52.96
2018-10-09T04:47:08.427Z,52.46
2018-10-09T04:47:46.258Z,53.34
2018-10-09T04:48:24.253Z,52.17
2018-10-09T04:49:02.272Z,52.69
2018-10-09T04:49:40.203Z,53.04
2018-10-09T04:50:18.142Z,52.81
2018-10-09T04:50:56.099Z,52.04
2018-10-09T04:51:34.580Z,52.31
2018-10-09T04:52:12.467Z,52.22
2018-10-09T04:52:50.341Z,52.79
2018-10-09T04:53:28.263Z,51.85
2018-10-09T04:54:06.163Z,51.77
2018-10-09T04:54:44.120Z,52.68
2018-10-09T04:55:21.969Z,52.41
2018-10-09T04:55:59.905Z,53.63
2018-10-09T04:56:37.807Z,52.34
2018-10-09T04:57:16.020Z,52.93
2018-10-09T04:57:55.002Z,52.94
2018-10-09T04:58:32.913Z,51.93
2018-10-09T04:59:10.801Z,52.08
2018-10-09T04:59:48.546Z,52.47
2018-10-09T05:00:26.512Z,52.33
2018-10-09T05:01:04.279Z,51.56
2018-10-09T05:01:42.366Z,52.42
2018-10-09T05:02:20.476Z,51.89
2018-10-09T05:02:58.578Z,52.97
2018-10-09T05:03:36.419Z,53.38
2018-10-09T05:04:14.369Z,53.43
2018-10-09T05:04:52.250Z,54.36
2018-10-09T05:05:31.055Z,54.12
2018-10-09T05:06:09.492Z,54.69
2018-10-09T05:06:47.452Z,54.25
2018-10-09T05:07:25.255Z,54.51
2018-10-09T05:08:03.072Z,53.53
2018-10-09T05:08:40.957Z,54.15
2018-10-09T05:09:20.473Z,53.95
2018-10-09T05:09:59.590Z,54.57
2018-10-09T05:10:37.586Z,54.62
2018-10-09T05:11:15.459Z,54.63
2018-10-09T05:11:53.348Z,54.46
2018-10-09T05:12:31.153Z,54.75
2018-10-09T05:13:09.171Z,54.88
2018-10-09T05:13:47.030Z,54.37
2018-10-09T05:14:25.105Z,54.72
2018-10-09T05:15:02.929Z,54.62
2018-10-09T05:15:40.802Z,55.83
2018-10-09T05:16:18.729Z,55.79
2018-10-09T05:16:57.516Z,55.83
2018-10-09T05:17:35.446Z,56.52
2018-10-09T05:18:13.327Z,56.14
2018-10-09T05:18:51.220Z,56.45
2018-10-09T05:19:29.078Z,56.01
2018-10-09T05:20:07.408Z,55.84
2018-10-09T05:20:45.407Z,55.58
2018-10-09T05:21:23.311Z,55.82
2018-10-09T05:22:01.202Z,54.92
2018-10-09T05:22:39.086Z,55.20
2018-10-09T05:23:16.910Z,55.69
2018-10-09T05:23:55.801Z,55.87
2018-10-09T05:24:35.031Z,55.81
2018-10-09T05:25:13.121Z,55.72
2018-10-09T05:25:50.977Z,56.19
2018-10-09T05:26:28.932Z,56.49
2018-10-09T05:27:06.858Z,56.01
2018-10-09T05:27:44.695Z,55.51
2018-10-09T05:28:22.513Z,56.40
2018-10-09T05:29:00.373Z,56.46
2018-10-09T05:29:39.214Z,56.35
2018-10-09T05:30:17.003Z,57.21
2018-10-09T05:30:55.128Z,56.64
2018-10-09T05:31:32.963Z,56.69
2018-10-09T05:32:10.989Z,56.39
2018-10-09T05:32:48.767Z,56.75
2018-10-09T05:33:26.614Z,55.57
2018-10-09T05:34:04.537Z,56.57
2018-10-09T05:34:42.444Z,56.00
2018-10-09T05:35:20.319Z,55.72
2018-10-09T05:35:59.236Z,56.32
2018-10-09T05:36:37.048Z,56.63
2018-10-09T05:37:14.899Z,56.08
2018-10-09T05:37:53.126Z,57.36
2018-10-09T05:38:31.006Z,56.97
2018-10-09T05:39:09.968Z,57.82
2018-10-09T05:39:47.851Z,57.96
2018-10-09T05:40:25.780Z,58.13
2018-10-09T05:41:03.670Z,57.65
2018-10-09T05:41:41.627Z,58.21
2018-10-09T05:42:19.577Z,58.26
2018-10-09T05:42:57.492Z,58.67
2018-10-09T05:43:35.403Z,59.34
2018-10-09T05:44:13.340Z,59.87
2018-10-09T05:44:51.338Z,59.50
2018-10-09T05:45:29.713Z,58.56
2018-10-09T05:46:07.560Z,59.49
2018-10-09T05:46:45.447Z,59.77
2018-10-09T05:47:23.343Z,59.53
2018-10-09T05:48:01.172Z,59.22
2018-10-09T05:48:38.944Z,59.25
2018-10-09T05:49:16.841Z,59.40
2018-10-09T05:49:54.975Z,60.18
2018-10-09T05:50:32.997Z,59.85
2018-10-09T05:51:11.364Z,59.98
2018-10-09T05:51:49.228Z,59.80
2018-10-09T05:52:27.183Z,60.65
2018-10-09T05:53:05.059Z,59.56
2018-10-09T05:53:43.633Z,59.89
2018-10-09T05:54:21.569Z,59.92
2018-10-09T05:54:59.492Z,59.99
2018-10-09T05:55:38.076Z,59.73
2018-10-09T05:56:16.316Z,59.34
2018-10-09T05:56:54.358Z,59.29
2018-10-09T05:57:32.299Z,59.57
2018-10-09T05:58:10.468Z,58.72
2018-10-09T05:58:48.438Z,59.11
2018-10-09T05:59:27.207Z,58.79
2018-10-09T06:00:05.102Z,59.40
2018-10-09T06:00:43.099Z,59.73
2018-10-09T06:01:22.023Z,58.27
2018-10-09T06:01:59.965Z,58.63
2018-10-09T06:02:37.902Z,58.88
2018-10-09T06:03:15.813Z,59.34
2018-10-09T06:03:53.653Z,59.70
2018-10-09T06:04:31.570Z,59.15
2018-10-09T06:05:09.456Z,59.40
2018-10-09T06:05:48.559Z,60.17
2018-10-09T06:07:09.307Z,59.50
2018-10-09T06:07:47.296Z,59.37
2018-10-09T06:08:25.259Z,60.38
2018-10-09T06:09:03.247Z,59.58
2018-10-09T06:09:41.660Z,59.72
2018-10-09T06:10:19.444Z,60.20
2018-10-09T06:10:57.325Z,60.20
2018-10-09T06:11:35.190Z,60.48
2018-10-09T06:12:13.125Z,60.32
2018-10-09T06:12:50.990Z,60.83
2018-10-09T06:13:28.792Z,60.65
2018-10-09T06:14:06.899Z,60.27
2018-10-09T06:14:44.904Z,60.16
2018-10-09T06:15:22.899Z,61.19
2018-10-09T06:16:00.765Z,60.71
2018-10-09T06:16:38.727Z,60.64
2018-10-09T06:17:16.620Z,60.84
2018-10-09T06:17:54.429Z,60.16
2018-10-09T06:18:32.198Z,60.20
2018-10-09T06:19:10.097Z,60.24
2018-10-09T06:19:47.954Z,60.27
2018-10-09T06:20:26.707Z,60.34
2018-10-09T06:21:04.652Z,61.04
2018-10-09T06:21:42.636Z,61.00
2018-10-09T06:22:20.562Z,60.90
2018-10-09T06:22:58.491Z,61.58
2018-10-09T06:23:37.036Z,61.36
2018-10-09T06:24:15.009Z,61.16
2018-10-09T06:24:54.065Z,61.14
2018-10-09T06:25:31.967Z,60.93
2018-10-09T06:26:09.767Z,60.70
2018-10-09T06:26:47.733Z,61.58
2018-10-09T06:27:25.601Z,61.50
2018-10-09T06:28:03.428Z,61.33
2018-10-09T06:28:41.263Z,59.96
2018-10-09T06:29:19.145Z,60.43
2018-10-09T06:29:57.079Z,60.30
2018-10-09T06:30:36.170Z,60.57
2018-10-09T06:31:14.201Z,60.12
2018-10-09T06:31:52.051Z,60.11
2018-10-09T06:32:31.167Z,59.97
2018-10-09T06:33:09.202Z,61.00
2018-10-09T06:33:52.418Z,60.87
2018-10-09T06:34:30.247Z,61.33
2018-10-09T06:35:08.217Z,60.98
2018-10-09T06:35:46.077Z,60.88
2018-10-09T06:36:24.010Z,61.44
2018-10-09T06:37:01.962Z,61.16
2018-10-09T06:37:40.670Z,60.92
2018-10-09T06:38:18.846Z,61.08
2018-10-09T06:38:56.741Z,61.41
2018-10-09T06:39:34.601Z,60.75
2018-10-09T06:40:12.463Z,60.61
2018-10-09T06:40:50.299Z,61.23
2018-10-09T06:41:28.400Z,61.04
2018-10-09T06:42:06.395Z,60.68
2018-10-09T06:42:44.270Z,61.51
2018-10-09T06:43:22.391Z,60.80
2018-10-09T06:44:00.335Z,61.27
2018-10-09T06:44:38.249Z,61.71
2018-10-09T06:45:16.103Z,61.11
2018-10-09T06:45:53.904Z,61.08
2018-10-09T06:46:31.945Z,60.75
2018-10-09T06:47:10.071Z,60.88
2018-10-09T06:47:47.913Z,60.83
2018-10-09T06:48:25.920Z,60.77
2018-10-09T06:49:03.764Z,60.24
2018-10-09T06:49:41.739Z,60.14
2018-10-09T06:50:19.549Z,59.87
2018-10-09T06:50:57.478Z,59.68
2018-10-09T06:51:35.349Z,59.71
2018-10-09T06:52:14.810Z,59.87
2018-10-09T06:52:52.736Z,60.84
2018-10-09T06:53:30.622Z,60.03
2018-10-09T06:54:08.578Z,58.57
2018-10-09T06:54:46.615Z,59.36
2018-10-09T06:55:24.608Z,60.20
2018-10-09T06:56:02.604Z,60.24
2018-10-09T06:56:40.396Z,59.46
2018-10-09T06:57:18.840Z,59.58
2018-10-09T06:57:56.899Z,58.20
2018-10-09T06:58:35.587Z,56.52
2018-10-09T06:59:13.430Z,57.25
2018-10-09T06:59:51.280Z,57.41
2018-10-09T07:00:29.383Z,57.10
2018-10-09T07:01:07.248Z,57.34
2018-10-09T07:01:45.176Z,56.83
2018-10-09T07:02:27.450Z,58.08
2018-10-09T07:03:06.330Z,57.40
2018-10-09T07:03:44.281Z,57.11
2018-10-09T07:04:22.135Z,56.36
2018-10-09T07:04:59.968Z,55.93
2018-10-09T07:05:37.836Z,56.01
2018-10-09T07:06:16.445Z,55.07
2018-10-09T07:06:54.364Z,54.60
2018-10-09T07:07:32.490Z,54.76
2018-10-09T07:08:10.570Z,54.19
2018-10-09T07:08:48.476Z,53.85
2018-10-09T07:09:26.376Z,53.72
2018-10-09T07:10:04.278Z,54.29
2018-10-09T07:10:41.994Z,54.86
2018-10-09T07:11:20.057Z,54.14
2018-10-09T07:11:58.235Z,53.55
2018-10-09T07:12:36.018Z,53.70
2018-10-09T07:13:13.962Z,53.64
2018-10-09T07:13:54.105Z,54.31
2018-10-09T07:14:31.928Z,54.13
2018-10-09T07:15:09.869Z,54.82
2018-10-09T07:15:48.142Z,55.04
2018-10-09T07:16:26.764Z,55.54
2018-10-09T07:17:04.604Z,55.54
2018-10-09T07:17:42.616Z,55.69
2018-10-09T07:18:20.484Z,55.77
2018-10-09T07:18:58.280Z,55.16
2018-10-09T07:19:36.221Z,55.53
2018-10-09T07:20:15.123Z,55.18
2018-10-09T07:21:48.734Z,55.35
2018-10-09T07:22:26.700Z,54.87
2018-10-09T07:23:04.647Z,54.69
2018-10-09T07:23:42.489Z,54.28
2018-10-09T07:24:21.511Z,55.30
2018-10-09T07:24:59.376Z,54.34
2018-10-09T07:25:37.315Z,54.14
2018-10-09T07:26:15.178Z,53.67
2018-10-09T07:26:53.091Z,54.06
2018-10-09T07:27:30.926Z,54.34
2018-10-09T07:28:08.841Z,55.42
2018-10-09T07:28:46.808Z,54.70
2018-10-09T07:29:24.622Z,55.42
2018-10-09T07:30:02.619Z,54.68
2018-10-09T07:30:40.461Z,55.04
2018-10-09T07:31:18.384Z,54.09
2018-10-09T07:31:56.204Z,54.33
2018-10-09T07:32:34.024Z,54.88
2018-10-09T07:33:11.840Z,54.70
2018-10-09T07:33:49.717Z,54.72
2018-10-09T07:34:27.544Z,54.81
2018-10-09T07:35:05.444Z,54.89
2018-10-09T07:35:43.439Z,55.04
2018-10-09T07:36:21.504Z,55.09
2018-10-09T07:36:59.427Z,54.78
2018-10-09T07:37:37.290Z,54.98
2018-10-09T07:38:15.114Z,53.90
2018-10-09T07:38:52.926Z,54.98
2018-10-09T07:39:30.825Z,54.40
2018-10-09T07:40:08.776Z,54.94
2018-10-09T07:40:46.754Z,54.96
2018-10-09T07:41:24.581Z,54.34
2018-10-09T07:42:02.389Z,55.02
2018-10-09T07:42:40.253Z,54.25
2018-10-09T07:43:18.152Z,54.79
2018-10-09T07:43:56.169Z,54.89
2018-10-09T07:44:34.187Z,53.83
2018-10-09T07:45:12.046Z,54.65
2018-10-09T07:45:49.976Z,55.27
2018-10-09T07:46:28.236Z,54.53
2018-10-09T07:47:07.393Z,54.59
2018-10-09T07:47:46.247Z,55.07
2018-10-09T07:48:24.269Z,55.58
2018-10-09T07:49:02.334Z,54.81
2018-10-09T07:49:40.356Z,54.16
2018-10-09T07:50:18.269Z,54.45
2018-10-09T07:50:56.408Z,54.77
2018-10-09T07:51:34.307Z,54.91
2018-10-09T07:52:12.391Z,55.80
2018-10-09T07:52:50.488Z,55.20
2018-10-09T07:53:28.488Z,56.10
2018-10-09T07:54:06.270Z,55.73
2018-10-09T07:54:44.046Z,56.12
2018-10-09T07:55:21.848Z,56.55
2018-10-09T07:55:59.837Z,55.57
2018-10-09T07:56:37.672Z,55.66
2018-10-09T07:57:15.640Z,55.75
2018-10-09T07:57:53.617Z,56.37
2018-10-09T07:58:31.500Z,55.21
2018-10-09T07:59:09.336Z,55.77
2018-10-09T07:59:47.144Z,55.10
2018-10-09T08:00:25.531Z,55.03
2018-10-09T08:01:03.401Z,55.80
2018-10-09T08:01:41.157Z,56.01
2018-10-09T08:02:18.968Z,55.34
2018-10-09T08:02:56.837Z,55.41
2018-10-09T08:03:34.708Z,56.12
2018-10-09T08:04:13.693Z,56.24
2018-10-09T08:04:51.566Z,56.51
2018-10-09T08:05:29.656Z,56.11
2018-10-09T08:06:07.841Z,56.16
2018-10-09T08:06:46.261Z,56.39
2018-10-09T08:07:24.245Z,56.04
2018-10-09T08:08:02.106Z,55.66
2018-10-09T08:08:40.047Z,56.94
2018-10-09T08:09:17.950Z,57.08
2018-10-09T08:09:55.939Z,56.11
2018-10-09T08:10:34.033Z,56.89
2018-10-09T08:11:12.059Z,55.75
2018-10-09T08:11:50.007Z,55.79
2018-10-09T08:12:29.131Z,56.40
2018-10-09T08:13:06.958Z,57.00
2018-10-09T08:13:44.798Z,57.08
2018-10-09T08:14:22.608Z,57.61
2018-10-09T08:15:00.477Z,57.19